sensor_id;sensor_type;location;lat;lon;timestamp;temperature;humidity
70421;SHT31;57848;51.938;15.520;2022-11-18T00:01:23;1.82;83.34
70421;SHT31;57848;51.938;15.520;2022-11-18T00:03:50;1.71;83.44
70421;SHT31;57848;51.938;15.520;2022-11-18T00:06:20;1.71;83.41
70421;SHT31;57848;51.938;15.520;2022-11-18T00:08:46;1.59;83.30
70421;SHT31;57848;51.938;15.520;2022-11-18T00:11:14;1.64;83.74
70421;SHT31;57848;51.938;15.520;2022-11-18T00:14:03;1.75;83.20
70421;SHT31;57848;51.938;15.520;2022-11-18T00:16:49;1.62;83.31
70421;SHT31;57848;51.938;15.520;2022-11-18T00:19:15;1.54;83.30
70421;SHT31;57848;51.938;15.520;2022-11-18T00:21:40;1.59;82.97
70421;SHT31;57848;51.938;15.520;2022-11-18T00:24:06;1.55;83.23
70421;SHT31;57848;51.938;15.520;2022-11-18T00:26:32;1.50;83.38
70421;SHT31;57848;51.938;15.520;2022-11-18T00:28:57;1.51;83.25
70421;SHT31;57848;51.938;15.520;2022-11-18T00:31:22;1.47;83.39
70421;SHT31;57848;51.938;15.520;2022-11-18T00:33:49;1.45;83.69
70421;SHT31;57848;51.938;15.520;2022-11-18T00:36:14;1.54;83.18
70421;SHT31;57848;51.938;15.520;2022-11-18T00:38:40;1.40;83.61
70421;SHT31;57848;51.938;15.520;2022-11-18T00:41:10;1.43;83.58
70421;SHT31;57848;51.938;15.520;2022-11-18T00:43:36;1.45;83.46
70421;SHT31;57848;51.938;15.520;2022-11-18T00:46:05;1.41;83.12
70421;SHT31;57848;51.938;15.520;2022-11-18T00:48:31;1.41;83.13
70421;SHT31;57848;51.938;15.520;2022-11-18T00:51:04;1.40;83.21
70421;SHT31;57848;51.938;15.520;2022-11-18T00:53:29;1.45;83.06
70421;SHT31;57848;51.938;15.520;2022-11-18T00:55:55;1.44;83.18
70421;SHT31;57848;51.938;15.520;2022-11-18T00:58:20;1.43;83.11
70421;SHT31;57848;51.938;15.520;2022-11-18T01:00:50;1.43;82.81
70421;SHT31;57848;51.938;15.520;2022-11-18T01:03:16;1.41;82.99
70421;SHT31;57848;51.938;15.520;2022-11-18T01:05:42;1.47;82.96
70421;SHT31;57848;51.938;15.520;2022-11-18T01:08:09;1.40;82.75
70421;SHT31;57848;51.938;15.520;2022-11-18T01:10:36;1.30;82.63
70421;SHT31;57848;51.938;15.520;2022-11-18T01:13:02;1.31;82.93
70421;SHT31;57848;51.938;15.520;2022-11-18T01:15:54;1.14;83.38
70421;SHT31;57848;51.938;15.520;2022-11-18T01:18:23;1.10;83.42
70421;SHT31;57848;51.938;15.520;2022-11-18T01:20:49;1.06;83.52
70421;SHT31;57848;51.938;15.520;2022-11-18T01:23:15;1.07;83.39
70421;SHT31;57848;51.938;15.520;2022-11-18T01:25:42;1.08;83.42
70421;SHT31;57848;51.938;15.520;2022-11-18T01:28:09;1.03;83.28
70421;SHT31;57848;51.938;15.520;2022-11-18T01:30:36;1.03;83.37
70421;SHT31;57848;51.938;15.520;2022-11-18T01:33:03;1.06;83.60
70421;SHT31;57848;51.938;15.520;2022-11-18T01:35:33;1.13;83.05
70421;SHT31;57848;51.938;15.520;2022-11-18T01:37:58;1.08;83.47
70421;SHT31;57848;51.938;15.520;2022-11-18T01:40:26;1.16;83.03
70421;SHT31;57848;51.938;15.520;2022-11-18T01:42:51;1.19;82.80
70421;SHT31;57848;51.938;15.520;2022-11-18T01:45:19;1.10;83.43
70421;SHT31;57848;51.938;15.520;2022-11-18T01:47:57;1.12;83.48
70421;SHT31;57848;51.938;15.520;2022-11-18T01:50:24;1.08;83.06
70421;SHT31;57848;51.938;15.520;2022-11-18T01:52:52;1.19;83.23
70421;SHT31;57848;51.938;15.520;2022-11-18T01:55:25;1.13;82.88
70421;SHT31;57848;51.938;15.520;2022-11-18T01:57:57;1.24;82.84
70421;SHT31;57848;51.938;15.520;2022-11-18T02:00:24;1.01;82.64
70421;SHT31;57848;51.938;15.520;2022-11-18T02:02:50;1.12;82.76
70421;SHT31;57848;51.938;15.520;2022-11-18T02:05:15;1.17;82.88
70421;SHT31;57848;51.938;15.520;2022-11-18T02:07:41;1.13;82.50
70421;SHT31;57848;51.938;15.520;2022-11-18T02:10:08;1.10;82.69
70421;SHT31;57848;51.938;15.520;2022-11-18T02:12:34;0.96;82.56
70421;SHT31;57848;51.938;15.520;2022-11-18T02:15:01;1.14;82.43
70421;SHT31;57848;51.938;15.520;2022-11-18T02:30:17;1.06;82.24
70421;SHT31;57848;51.938;15.520;2022-11-18T02:32:55;1.06;81.86
70421;SHT31;57848;51.938;15.520;2022-11-18T02:35:32;1.17;81.73
70421;SHT31;57848;51.938;15.520;2022-11-18T02:38:01;0.96;81.44
70421;SHT31;57848;51.938;15.520;2022-11-18T02:40:31;1.00;81.76
70421;SHT31;57848;51.938;15.520;2022-11-18T02:43:08;0.90;81.42
70421;SHT31;57848;51.938;15.520;2022-11-18T02:45:36;1.00;81.79
70421;SHT31;57848;51.938;15.520;2022-11-18T02:48:07;0.93;81.52
70421;SHT31;57848;51.938;15.520;2022-11-18T02:50:34;1.04;81.14
70421;SHT31;57848;51.938;15.520;2022-11-18T02:53:03;0.87;81.35
70421;SHT31;57848;51.938;15.520;2022-11-18T02:55:30;0.75;81.76
70421;SHT31;57848;51.938;15.520;2022-11-18T02:57:57;0.86;81.48
70421;SHT31;57848;51.938;15.520;2022-11-18T03:00:24;0.86;81.27
70421;SHT31;57848;51.938;15.520;2022-11-18T03:02:49;0.80;81.45
70421;SHT31;57848;51.938;15.520;2022-11-18T03:05:46;0.85;81.44
70421;SHT31;57848;51.938;15.520;2022-11-18T03:08:16;0.89;81.50
70421;SHT31;57848;51.938;15.520;2022-11-18T03:11:02;0.92;81.37
70421;SHT31;57848;51.938;15.520;2022-11-18T03:13:58;0.69;81.33
70421;SHT31;57848;51.938;15.520;2022-11-18T03:21:45;0.93;81.21
70421;SHT31;57848;51.938;15.520;2022-11-18T03:24:46;0.86;81.30
70421;SHT31;57848;51.938;15.520;2022-11-18T03:27:31;0.87;81.23
70421;SHT31;57848;51.938;15.520;2022-11-18T03:30:10;0.94;81.12
70421;SHT31;57848;51.938;15.520;2022-11-18T03:32:40;0.93;80.99
70421;SHT31;57848;51.938;15.520;2022-11-18T03:35:21;0.89;81.45
70421;SHT31;57848;51.938;15.520;2022-11-18T03:37:48;0.89;81.29
70421;SHT31;57848;51.938;15.520;2022-11-18T03:40:28;0.89;81.36
70421;SHT31;57848;51.938;15.520;2022-11-18T03:43:16;0.83;81.60
70421;SHT31;57848;51.938;15.520;2022-11-18T03:45:48;0.77;81.87
70421;SHT31;57848;51.938;15.520;2022-11-18T03:48:35;0.76;81.99
70421;SHT31;57848;51.938;15.520;2022-11-18T03:51:08;0.70;81.82
70421;SHT31;57848;51.938;15.520;2022-11-18T03:53:43;0.73;81.71
70421;SHT31;57848;51.938;15.520;2022-11-18T03:56:14;0.79;81.42
70421;SHT31;57848;51.938;15.520;2022-11-18T03:58:50;0.76;81.45
70421;SHT31;57848;51.938;15.520;2022-11-18T04:01:21;0.64;81.84
70421;SHT31;57848;51.938;15.520;2022-11-18T04:03:48;0.65;82.04
70421;SHT31;57848;51.938;15.520;2022-11-18T04:06:29;0.52;82.00
70421;SHT31;57848;51.938;15.520;2022-11-18T04:08:59;0.51;82.12
70421;SHT31;57848;51.938;15.520;2022-11-18T04:11:31;0.59;81.86
70421;SHT31;57848;51.938;15.520;2022-11-18T04:14:19;0.58;81.88
70421;SHT31;57848;51.938;15.520;2022-11-18T04:16:49;0.49;81.54
70421;SHT31;57848;51.938;15.520;2022-11-18T04:19:15;0.37;81.46
70421;SHT31;57848;51.938;15.520;2022-11-18T04:21:40;0.48;81.79
70421;SHT31;57848;51.938;15.520;2022-11-18T04:24:05;0.49;81.94
70421;SHT31;57848;51.938;15.520;2022-11-18T04:26:31;0.52;81.93
70421;SHT31;57848;51.938;15.520;2022-11-18T04:28:57;0.45;81.93
70421;SHT31;57848;51.938;15.520;2022-11-18T04:31:22;0.52;81.79
70421;SHT31;57848;51.938;15.520;2022-11-18T04:33:47;0.35;82.18
70421;SHT31;57848;51.938;15.520;2022-11-18T04:36:13;0.44;82.04
70421;SHT31;57848;51.938;15.520;2022-11-18T04:38:38;0.49;81.90
70421;SHT31;57848;51.938;15.520;2022-11-18T04:41:04;0.51;82.00
70421;SHT31;57848;51.938;15.520;2022-11-18T04:43:29;0.56;81.95
70421;SHT31;57848;51.938;15.520;2022-11-18T04:45:54;0.55;81.88
70421;SHT31;57848;51.938;15.520;2022-11-18T04:48:20;0.54;81.80
70421;SHT31;57848;51.938;15.520;2022-11-18T04:50:45;0.51;81.81
70421;SHT31;57848;51.938;15.520;2022-11-18T04:53:11;0.48;81.66
70421;SHT31;57848;51.938;15.520;2022-11-18T04:55:36;0.40;81.83
70421;SHT31;57848;51.938;15.520;2022-11-18T04:58:02;0.44;81.86
70421;SHT31;57848;51.938;15.520;2022-11-18T05:00:27;0.28;82.24
70421;SHT31;57848;51.938;15.520;2022-11-18T05:02:53;0.34;81.94
70421;SHT31;57848;51.938;15.520;2022-11-18T05:05:18;0.34;82.13
70421;SHT31;57848;51.938;15.520;2022-11-18T05:07:44;0.40;81.97
70421;SHT31;57848;51.938;15.520;2022-11-18T05:10:09;0.38;81.89
70421;SHT31;57848;51.938;15.520;2022-11-18T05:12:34;0.41;81.68
70421;SHT31;57848;51.938;15.520;2022-11-18T05:15:17;0.40;81.69
70421;SHT31;57848;51.938;15.520;2022-11-18T05:17:43;0.37;81.48
70421;SHT31;57848;51.938;15.520;2022-11-18T05:20:10;0.29;81.60
70421;SHT31;57848;51.938;15.520;2022-11-18T05:22:35;0.31;81.82
70421;SHT31;57848;51.938;15.520;2022-11-18T05:25:01;0.22;81.82
70421;SHT31;57848;51.938;15.520;2022-11-18T05:27:26;0.28;82.01
70421;SHT31;57848;51.938;15.520;2022-11-18T05:29:51;0.10;82.02
70421;SHT31;57848;51.938;15.520;2022-11-18T05:32:17;0.01;82.62
70421;SHT31;57848;51.938;15.520;2022-11-18T05:34:43;0.14;83.13
70421;SHT31;57848;51.938;15.520;2022-11-18T05:37:08;0.24;82.95
70421;SHT31;57848;51.938;15.520;2022-11-18T05:39:34;0.31;82.68
70421;SHT31;57848;51.938;15.520;2022-11-18T05:41:59;0.34;82.66
70421;SHT31;57848;51.938;15.520;2022-11-18T05:44:43;0.24;83.30
70421;SHT31;57848;51.938;15.520;2022-11-18T05:47:09;0.15;81.99
70421;SHT31;57848;51.938;15.520;2022-11-18T05:49:35;0.22;81.67
70421;SHT31;57848;51.938;15.520;2022-11-18T05:52:00;0.13;81.73
70421;SHT31;57848;51.938;15.520;2022-11-18T05:54:26;0.08;81.71
70421;SHT31;57848;51.938;15.520;2022-11-18T05:56:52;0.07;81.34
70421;SHT31;57848;51.938;15.520;2022-11-18T05:59:17;0.15;81.55
70421;SHT31;57848;51.938;15.520;2022-11-18T06:01:53;0.13;81.08
70421;SHT31;57848;51.938;15.520;2022-11-18T06:04:29;0.13;80.51
70421;SHT31;57848;51.938;15.520;2022-11-18T06:06:59;0.14;81.01
70421;SHT31;57848;51.938;15.520;2022-11-18T06:09:29;0.04;80.44
70421;SHT31;57848;51.938;15.520;2022-11-18T06:11:57;0.07;79.53
70421;SHT31;57848;51.938;15.520;2022-11-18T06:14:32;0.00;79.78
70421;SHT31;57848;51.938;15.520;2022-11-18T06:17:02;-0.10;79.36
70421;SHT31;57848;51.938;15.520;2022-11-18T06:19:30;-0.03;79.81
70421;SHT31;57848;51.938;15.520;2022-11-18T06:21:57;0.03;79.01
70421;SHT31;57848;51.938;15.520;2022-11-18T06:24:22;0.03;79.00
70421;SHT31;57848;51.938;15.520;2022-11-18T06:26:48;0.08;78.46
70421;SHT31;57848;51.938;15.520;2022-11-18T06:29:15;0.07;78.45
70421;SHT31;57848;51.938;15.520;2022-11-18T06:31:42;0.10;78.08
70421;SHT31;57848;51.938;15.520;2022-11-18T06:34:07;0.21;78.03
70421;SHT31;57848;51.938;15.520;2022-11-18T06:36:33;0.21;77.92
70421;SHT31;57848;51.938;15.520;2022-11-18T06:39:05;0.17;77.05
70421;SHT31;57848;51.938;15.520;2022-11-18T06:41:31;-0.03;76.30
70421;SHT31;57848;51.938;15.520;2022-11-18T06:43:57;-0.04;76.57
70421;SHT31;57848;51.938;15.520;2022-11-18T06:46:22;0.01;76.08
70421;SHT31;57848;51.938;15.520;2022-11-18T06:49:06;-0.03;76.42
70421;SHT31;57848;51.938;15.520;2022-11-18T06:51:32;-0.03;76.75
70421;SHT31;57848;51.938;15.520;2022-11-18T06:53:57;-0.06;76.44
70421;SHT31;57848;51.938;15.520;2022-11-18T06:56:23;-0.28;76.24
70421;SHT31;57848;51.938;15.520;2022-11-18T06:58:56;-0.16;76.94
70421;SHT31;57848;51.938;15.520;2022-11-18T07:01:24;-0.03;76.12
70421;SHT31;57848;51.938;15.520;2022-11-18T07:03:50;-0.07;76.10
70421;SHT31;57848;51.938;15.520;2022-11-18T07:06:21;-0.18;75.69
70421;SHT31;57848;51.938;15.520;2022-11-18T07:08:47;-0.18;75.66
70421;SHT31;57848;51.938;15.520;2022-11-18T07:11:15;-0.18;75.38
70421;SHT31;57848;51.938;15.520;2022-11-18T07:13:43;-0.26;75.84
70421;SHT31;57848;51.938;15.520;2022-11-18T07:16:11;-0.18;75.89
70421;SHT31;57848;51.938;15.520;2022-11-18T07:18:37;0.03;76.01
70421;SHT31;57848;51.938;15.520;2022-11-18T07:21:05;-0.02;75.30
70421;SHT31;57848;51.938;15.520;2022-11-18T07:23:32;0.05;75.54
70421;SHT31;57848;51.938;15.520;2022-11-18T07:25:57;0.03;75.92
70421;SHT31;57848;51.938;15.520;2022-11-18T07:28:23;-0.10;75.33
70421;SHT31;57848;51.938;15.520;2022-11-18T07:30:49;-0.17;75.59
70421;SHT31;57848;51.938;15.520;2022-11-18T07:33:14;-0.10;75.89
70421;SHT31;57848;51.938;15.520;2022-11-18T07:35:40;-0.17;75.82
70421;SHT31;57848;51.938;15.520;2022-11-18T07:38:06;-0.20;76.22
70421;SHT31;57848;51.938;15.520;2022-11-18T07:40:31;-0.03;75.89
70421;SHT31;57848;51.938;15.520;2022-11-18T07:42:56;0.00;76.01
70421;SHT31;57848;51.938;15.520;2022-11-18T07:45:22;-0.11;76.05
70421;SHT31;57848;51.938;15.520;2022-11-18T07:47:48;-0.11;75.90
70421;SHT31;57848;51.938;15.520;2022-11-18T07:50:15;-0.09;76.10
70421;SHT31;57848;51.938;15.520;2022-11-18T07:52:40;-0.10;75.65
70421;SHT31;57848;51.938;15.520;2022-11-18T07:55:06;-0.13;75.74
70421;SHT31;57848;51.938;15.520;2022-11-18T07:57:31;-0.10;75.12
70421;SHT31;57848;51.938;15.520;2022-11-18T07:59:57;-0.10;75.23
70421;SHT31;57848;51.938;15.520;2022-11-18T08:02:22;-0.34;75.36
70421;SHT31;57848;51.938;15.520;2022-11-18T08:04:48;-0.45;75.28
70421;SHT31;57848;51.938;15.520;2022-11-18T08:07:13;-0.35;75.45
70421;SHT31;57848;51.938;15.520;2022-11-18T08:09:38;-0.30;75.63
70421;SHT31;57848;51.938;15.520;2022-11-18T08:12:04;-0.33;75.14
70421;SHT31;57848;51.938;15.520;2022-11-18T08:14:30;-0.23;74.93
70421;SHT31;57848;51.938;15.520;2022-11-18T08:16:55;-0.18;74.80
70421;SHT31;57848;51.938;15.520;2022-11-18T08:19:21;-0.14;74.77
70421;SHT31;57848;51.938;15.520;2022-11-18T08:21:47;-0.23;74.48
70421;SHT31;57848;51.938;15.520;2022-11-18T08:24:12;-0.23;73.94
70421;SHT31;57848;51.938;15.520;2022-11-18T08:26:37;-0.38;73.84
70421;SHT31;57848;51.938;15.520;2022-11-18T08:29:03;-0.33;74.17
70421;SHT31;57848;51.938;15.520;2022-11-18T08:31:29;-0.40;74.14
70421;SHT31;57848;51.938;15.520;2022-11-18T08:36:22;-0.41;74.15
70421;SHT31;57848;51.938;15.520;2022-11-18T08:38:47;-0.35;74.31
70421;SHT31;57848;51.938;15.520;2022-11-18T08:41:15;-0.34;74.06
70421;SHT31;57848;51.938;15.520;2022-11-18T08:43:41;-0.27;73.95
70421;SHT31;57848;51.938;15.520;2022-11-18T08:46:07;-0.33;73.64
70421;SHT31;57848;51.938;15.520;2022-11-18T08:48:32;-0.26;73.67
70421;SHT31;57848;51.938;15.520;2022-11-18T08:50:58;-0.21;73.86
70421;SHT31;57848;51.938;15.520;2022-11-18T08:53:24;-0.28;74.08
70421;SHT31;57848;51.938;15.520;2022-11-18T08:55:57;-0.26;74.37
70421;SHT31;57848;51.938;15.520;2022-11-18T08:58:23;-0.11;74.64
70421;SHT31;57848;51.938;15.520;2022-11-18T09:00:48;-0.16;74.27
70421;SHT31;57848;51.938;15.520;2022-11-18T09:03:14;-0.16;74.43
70421;SHT31;57848;51.938;15.520;2022-11-18T09:05:39;-0.09;74.80
70421;SHT31;57848;51.938;15.520;2022-11-18T09:08:04;-0.02;75.03
70421;SHT31;57848;51.938;15.520;2022-11-18T09:10:30;-0.07;74.80
70421;SHT31;57848;51.938;15.520;2022-11-18T09:12:55;-0.02;75.02
70421;SHT31;57848;51.938;15.520;2022-11-18T09:15:21;-0.04;74.29
70421;SHT31;57848;51.938;15.520;2022-11-18T09:17:48;0.08;75.28
70421;SHT31;57848;51.938;15.520;2022-11-18T09:20:15;0.11;74.89
70421;SHT31;57848;51.938;15.520;2022-11-18T09:22:41;0.07;74.86
70421;SHT31;57848;51.938;15.520;2022-11-18T09:25:07;-0.04;75.05
70421;SHT31;57848;51.938;15.520;2022-11-18T09:27:32;-0.17;74.77
70421;SHT31;57848;51.938;15.520;2022-11-18T09:29:57;-0.11;75.01
70421;SHT31;57848;51.938;15.520;2022-11-18T09:32:23;-0.11;74.99
70421;SHT31;57848;51.938;15.520;2022-11-18T09:34:48;-0.10;74.97
70421;SHT31;57848;51.938;15.520;2022-11-18T09:37:14;0.01;75.04
70421;SHT31;57848;51.938;15.520;2022-11-18T09:39:39;0.08;75.42
70421;SHT31;57848;51.938;15.520;2022-11-18T09:42:31;0.05;75.18
70421;SHT31;57848;51.938;15.520;2022-11-18T09:45:18;0.15;75.25
70421;SHT31;57848;51.938;15.520;2022-11-18T09:47:44;0.17;74.71
70421;SHT31;57848;51.938;15.520;2022-11-18T09:50:12;0.15;74.77
70421;SHT31;57848;51.938;15.520;2022-11-18T09:52:48;0.07;75.06
70421;SHT31;57848;51.938;15.520;2022-11-18T09:55:18;0.11;74.71
70421;SHT31;57848;51.938;15.520;2022-11-18T09:57:46;0.18;75.01
70421;SHT31;57848;51.938;15.520;2022-11-18T10:00:20;0.25;75.20
70421;SHT31;57848;51.938;15.520;2022-11-18T10:08:25;0.38;75.15
70421;SHT31;57848;51.938;15.520;2022-11-18T10:11:13;0.44;75.16
70421;SHT31;57848;51.938;15.520;2022-11-18T10:13:50;0.44;75.24
70421;SHT31;57848;51.938;15.520;2022-11-18T10:24:41;0.62;75.52
70421;SHT31;57848;51.938;15.520;2022-11-18T10:27:14;0.55;75.77
70421;SHT31;57848;51.938;15.520;2022-11-18T10:29:40;0.61;75.45
70421;SHT31;57848;51.938;15.520;2022-11-18T10:32:10;0.62;76.18
70421;SHT31;57848;51.938;15.520;2022-11-18T10:37:29;0.61;76.75
70421;SHT31;57848;51.938;15.520;2022-11-18T10:39:57;0.61;77.13
70421;SHT31;57848;51.938;15.520;2022-11-18T10:45:22;0.59;77.58
70421;SHT31;57848;51.938;15.520;2022-11-18T10:50:35;0.54;77.53
70421;SHT31;57848;51.938;15.520;2022-11-18T10:53:01;0.58;77.70
70421;SHT31;57848;51.938;15.520;2022-11-18T10:55:29;0.56;77.44
70421;SHT31;57848;51.938;15.520;2022-11-18T10:57:59;0.58;77.28
70421;SHT31;57848;51.938;15.520;2022-11-18T11:03:33;0.55;76.86
70421;SHT31;57848;51.938;15.520;2022-11-18T11:06:36;0.51;76.56
70421;SHT31;57848;51.938;15.520;2022-11-18T11:09:46;0.34;76.71
70421;SHT31;57848;51.938;15.520;2022-11-18T11:12:11;0.49;76.29
70421;SHT31;57848;51.938;15.520;2022-11-18T11:14:50;0.44;76.35
70421;SHT31;57848;51.938;15.520;2022-11-18T11:17:30;0.51;76.13
70421;SHT31;57848;51.938;15.520;2022-11-18T11:20:22;0.40;75.98
70421;SHT31;57848;51.938;15.520;2022-11-18T11:22:47;0.41;76.48
70421;SHT31;57848;51.938;15.520;2022-11-18T11:25:30;0.35;76.58
70421;SHT31;57848;51.938;15.520;2022-11-18T11:28:06;0.42;76.43
70421;SHT31;57848;51.938;15.520;2022-11-18T11:31:25;0.40;76.40
70421;SHT31;57848;51.938;15.520;2022-11-18T11:33:38;0.35;76.27
70421;SHT31;57848;51.938;15.520;2022-11-18T11:41:58;0.32;75.98
70421;SHT31;57848;51.938;15.520;2022-11-18T11:44:44;0.35;75.74
70421;SHT31;57848;51.938;15.520;2022-11-18T11:50:53;0.37;75.31
70421;SHT31;57848;51.938;15.520;2022-11-18T11:59:31;0.17;73.88
70421;SHT31;57848;51.938;15.520;2022-11-18T12:07:42;0.05;72.64
70421;SHT31;57848;51.938;15.520;2022-11-18T12:10:34;0.15;72.38
70421;SHT31;57848;51.938;15.520;2022-11-18T12:18:31;0.28;72.47
70421;SHT31;57848;51.938;15.520;2022-11-18T12:20:59;0.19;72.22
70421;SHT31;57848;51.938;15.520;2022-11-18T12:23:29;0.25;72.54
70421;SHT31;57848;51.938;15.520;2022-11-18T12:33:57;0.21;71.69
70421;SHT31;57848;51.938;15.520;2022-11-18T12:36:38;0.24;71.81
70421;SHT31;57848;51.938;15.520;2022-11-18T12:41:58;0.21;72.09
70421;SHT31;57848;51.938;15.520;2022-11-18T12:44:45;0.13;72.34
70421;SHT31;57848;51.938;15.520;2022-11-18T12:47:12;0.24;72.16
70421;SHT31;57848;51.938;15.520;2022-11-18T12:55:12;0.26;71.32
70421;SHT31;57848;51.938;15.520;2022-11-18T12:57:40;0.40;70.05
70421;SHT31;57848;51.938;15.520;2022-11-18T13:00:34;0.56;69.63
70421;SHT31;57848;51.938;15.520;2022-11-18T13:03:20;0.61;69.61
70421;SHT31;57848;51.938;15.520;2022-11-18T13:05:46;0.58;69.43
70421;SHT31;57848;51.938;15.520;2022-11-18T13:08:12;0.59;69.21
70421;SHT31;57848;51.938;15.520;2022-11-18T13:10:51;0.59;68.55
70421;SHT31;57848;51.938;15.520;2022-11-18T13:13:27;0.62;68.95
70421;SHT31;57848;51.938;15.520;2022-11-18T13:15:54;0.66;69.16
70421;SHT31;57848;51.938;15.520;2022-11-18T13:18:51;0.61;69.08
70421;SHT31;57848;51.938;15.520;2022-11-18T13:21:26;0.64;69.30
70421;SHT31;57848;51.938;15.520;2022-11-18T13:24:15;0.62;68.67
70421;SHT31;57848;51.938;15.520;2022-11-18T13:26:42;0.68;69.10
70421;SHT31;57848;51.938;15.520;2022-11-18T13:32:22;0.70;68.01
70421;SHT31;57848;51.938;15.520;2022-11-18T13:34:53;0.68;67.37
70421;SHT31;57848;51.938;15.520;2022-11-18T13:37:23;0.65;67.15
70421;SHT31;57848;51.938;15.520;2022-11-18T13:39:49;0.62;66.63
70421;SHT31;57848;51.938;15.520;2022-11-18T13:42:21;0.64;66.38
70421;SHT31;57848;51.938;15.520;2022-11-18T13:44:51;0.58;66.20
70421;SHT31;57848;51.938;15.520;2022-11-18T13:47:36;0.69;65.95
70421;SHT31;57848;51.938;15.520;2022-11-18T13:55:27;0.49;65.85
70421;SHT31;57848;51.938;15.520;2022-11-18T13:58:00;0.52;66.28
70421;SHT31;57848;51.938;15.520;2022-11-18T14:00:28;0.58;65.89
70421;SHT31;57848;51.938;15.520;2022-11-18T14:02:57;0.46;65.87
70421;SHT31;57848;51.938;15.520;2022-11-18T14:05:24;0.49;66.09
70421;SHT31;57848;51.938;15.520;2022-11-18T14:08:05;0.64;66.81
70421;SHT31;57848;51.938;15.520;2022-11-18T14:13:00;0.70;66.42
70421;SHT31;57848;51.938;15.520;2022-11-18T14:17:56;0.70;65.69
70421;SHT31;57848;51.938;15.520;2022-11-18T14:20:24;0.72;65.80
70421;SHT31;57848;51.938;15.520;2022-11-18T14:22:55;0.72;66.25
70421;SHT31;57848;51.938;15.520;2022-11-18T14:25:25;0.76;66.36
70421;SHT31;57848;51.938;15.520;2022-11-18T14:28:12;0.73;66.13
70421;SHT31;57848;51.938;15.520;2022-11-18T14:30:53;0.68;66.29
70421;SHT31;57848;51.938;15.520;2022-11-18T14:33:21;0.75;66.31
70421;SHT31;57848;51.938;15.520;2022-11-18T14:38:29;0.69;66.51
70421;SHT31;57848;51.938;15.520;2022-11-18T14:40:58;0.65;66.13
70421;SHT31;57848;51.938;15.520;2022-11-18T14:43:24;0.66;65.98
70421;SHT31;57848;51.938;15.520;2022-11-18T14:46:02;0.65;66.79
70421;SHT31;57848;51.938;15.520;2022-11-18T14:48:29;0.59;66.26
70421;SHT31;57848;51.938;15.520;2022-11-18T14:50:54;0.66;67.09
70421;SHT31;57848;51.938;15.520;2022-11-18T14:53:20;0.68;66.69
70421;SHT31;57848;51.938;15.520;2022-11-18T14:55:48;0.66;66.45
70421;SHT31;57848;51.938;15.520;2022-11-18T14:58:15;0.65;66.74
70421;SHT31;57848;51.938;15.520;2022-11-18T15:00:42;0.59;66.90
70421;SHT31;57848;51.938;15.520;2022-11-18T15:03:07;0.64;67.15
70421;SHT31;57848;51.938;15.520;2022-11-18T15:05:33;0.58;67.39
70421;SHT31;57848;51.938;15.520;2022-11-18T15:07:58;0.62;67.53
70421;SHT31;57848;51.938;15.520;2022-11-18T15:10:24;0.65;67.44
70421;SHT31;57848;51.938;15.520;2022-11-18T15:12:49;0.59;67.88
70421;SHT31;57848;51.938;15.520;2022-11-18T15:15:14;0.38;68.64
70421;SHT31;57848;51.938;15.520;2022-11-18T15:17:40;0.24;69.19
70421;SHT31;57848;51.938;15.520;2022-11-18T15:20:08;0.19;69.79
70421;SHT31;57848;51.938;15.520;2022-11-18T15:22:34;0.04;70.30
70421;SHT31;57848;51.938;15.520;2022-11-18T15:24:59;0.04;70.61
70421;SHT31;57848;51.938;15.520;2022-11-18T15:27:25;0.04;70.81
70421;SHT31;57848;51.938;15.520;2022-11-18T15:29:50;0.15;70.75
70421;SHT31;57848;51.938;15.520;2022-11-18T15:32:16;0.07;70.93
70421;SHT31;57848;51.938;15.520;2022-11-18T15:34:41;0.11;71.00
70421;SHT31;57848;51.938;15.520;2022-11-18T15:37:10;0.15;70.96
70421;SHT31;57848;51.938;15.520;2022-11-18T15:39:36;0.21;70.92
70421;SHT31;57848;51.938;15.520;2022-11-18T15:42:01;0.24;70.35
70421;SHT31;57848;51.938;15.520;2022-11-18T15:44:27;0.31;71.29
70421;SHT31;57848;51.938;15.520;2022-11-18T15:46:52;0.34;70.50
70421;SHT31;57848;51.938;15.520;2022-11-18T15:49:18;0.31;70.42
70421;SHT31;57848;51.938;15.520;2022-11-18T15:51:43;0.35;70.52
70421;SHT31;57848;51.938;15.520;2022-11-18T15:54:08;0.32;70.78
70421;SHT31;57848;51.938;15.520;2022-11-18T15:56:34;0.28;70.98
70421;SHT31;57848;51.938;15.520;2022-11-18T15:59:02;0.29;70.95
70421;SHT31;57848;51.938;15.520;2022-11-18T16:01:36;0.35;71.50
70421;SHT31;57848;51.938;15.520;2022-11-18T16:04:03;0.31;71.50
70421;SHT31;57848;51.938;15.520;2022-11-18T16:06:29;0.28;71.42
70421;SHT31;57848;51.938;15.520;2022-11-18T16:08:55;0.32;71.59
70421;SHT31;57848;51.938;15.520;2022-11-18T16:11:20;0.28;71.54
70421;SHT31;57848;51.938;15.520;2022-11-18T16:14:08;0.25;71.87
70421;SHT31;57848;51.938;15.520;2022-11-18T16:16:35;0.31;71.68
70421;SHT31;57848;51.938;15.520;2022-11-18T16:19:03;0.26;71.57
70421;SHT31;57848;51.938;15.520;2022-11-18T16:21:31;0.26;71.73
70421;SHT31;57848;51.938;15.520;2022-11-18T16:23:59;0.31;71.59
70421;SHT31;57848;51.938;15.520;2022-11-18T16:26:25;0.28;71.84
70421;SHT31;57848;51.938;15.520;2022-11-18T16:28:52;0.24;71.74
70421;SHT31;57848;51.938;15.520;2022-11-18T16:31:18;0.17;71.86
70421;SHT31;57848;51.938;15.520;2022-11-18T16:34:05;0.08;72.18
70421;SHT31;57848;51.938;15.520;2022-11-18T16:36:31;-0.03;72.81
70421;SHT31;57848;51.938;15.520;2022-11-18T16:38:56;-0.07;73.13
70421;SHT31;57848;51.938;15.520;2022-11-18T16:41:22;-0.11;73.03
70421;SHT31;57848;51.938;15.520;2022-11-18T16:43:57;-0.04;73.17
70421;SHT31;57848;51.938;15.520;2022-11-18T16:46:24;-0.03;72.97
70421;SHT31;57848;51.938;15.520;2022-11-18T16:48:49;0.10;73.41
70421;SHT31;57848;51.938;15.520;2022-11-18T16:53:41;0.18;72.80
70421;SHT31;57848;51.938;15.520;2022-11-18T16:56:06;0.14;72.92
70421;SHT31;57848;51.938;15.520;2022-11-18T16:58:32;0.19;72.86
70421;SHT31;57848;51.938;15.520;2022-11-18T17:00:57;0.22;72.41
70421;SHT31;57848;51.938;15.520;2022-11-18T17:03:22;0.28;72.62
70421;SHT31;57848;51.938;15.520;2022-11-18T17:05:48;0.29;72.68
70421;SHT31;57848;51.938;15.520;2022-11-18T17:08:13;0.29;72.68
70421;SHT31;57848;51.938;15.520;2022-11-18T17:10:38;0.29;72.57
70421;SHT31;57848;51.938;15.520;2022-11-18T17:13:04;0.26;72.78
70421;SHT31;57848;51.938;15.520;2022-11-18T17:15:29;0.22;72.57
70421;SHT31;57848;51.938;15.520;2022-11-18T17:17:54;0.22;72.87
70421;SHT31;57848;51.938;15.520;2022-11-18T17:20:20;0.14;73.09
70421;SHT31;57848;51.938;15.520;2022-11-18T17:22:45;0.18;73.27
70421;SHT31;57848;51.938;15.520;2022-11-18T17:25:11;0.13;73.40
70421;SHT31;57848;51.938;15.520;2022-11-18T17:27:36;0.08;73.46
70421;SHT31;57848;51.938;15.520;2022-11-18T17:30:02;0.04;73.64